Terminal Aerodrome Forecast
Issued by NWS

Home | Current Version | Previous Version | Text Only | Print | Product List | Glossary On
Versions: 1 2 3 4 5 6 7 8 9 10 11 12 13 14 15 16 17
000
FTUS43 KDVN 172300 RRA
TAFCID
TAF
KCID 172346Z 1800/1824 16004KT P6SM SKC
     FM180600 15003KT 4SM BR SCT050
      TEMPO 1809/1813 1SM BR SCT003
     FM181400 17006KT P6SM BKN018
     FM181700 21011KT P6SM BKN035 PROB30 1819/1824 5SM -TSRA BR
      BKN020CB=

USA.gov is the U.S. government's official web portal to all federal, state and local government web resources and services.